createdAt,value
2018-08-10T00:02:34.926Z,19.70
2018-08-10T00:05:05.864Z,19.70
2018-08-10T00:07:36.113Z,19.70
2018-08-10T00:10:12.716Z,19.70
2018-08-10T00:12:46.973Z,19.70
2018-08-10T00:15:19.768Z,19.70
2018-08-10T00:17:51.949Z,19.60
2018-08-10T00:20:23.562Z,19.60
2018-08-10T00:22:54.944Z,19.70
2018-08-10T00:30:25.519Z,19.50
2018-08-10T00:32:56.028Z,19.30
2018-08-10T00:35:26.139Z,19.20
2018-08-10T00:40:25.950Z,19.10
2018-08-10T00:42:56.200Z,19.00
2018-08-10T00:45:26.290Z,18.90
2018-08-10T00:47:56.274Z,18.80
2018-08-10T00:50:26.278Z,18.80
2018-08-10T00:52:56.326Z,18.70
2018-08-10T00:55:26.330Z,18.80
2018-08-10T01:00:26.078Z,18.80
2018-08-10T01:02:56.159Z,18.80
2018-08-10T01:05:26.184Z,18.70
2018-08-10T01:07:56.627Z,18.60
2018-08-10T01:10:26.696Z,18.50
2018-08-10T01:15:26.325Z,18.40
2018-08-10T01:17:56.311Z,18.30
2018-08-10T01:20:26.326Z,18.30
2018-08-10T01:23:01.562Z,18.20
2018-08-10T01:25:31.567Z,18.10
2018-08-10T01:28:04.495Z,18.10
2018-08-10T01:30:35.597Z,18.00
2018-08-10T01:33:06.150Z,18.10
2018-08-10T01:35:40.237Z,18.10
2018-08-10T01:38:15.530Z,18.00
2018-08-10T01:40:47.992Z,18.00
2018-08-10T01:43:21.120Z,18.00
2018-08-10T01:45:53.512Z,17.90
2018-08-10T01:50:54.772Z,17.90
2018-08-10T01:53:25.770Z,17.90
2018-08-10T01:55:55.938Z,17.80
2018-08-10T01:58:26.138Z,17.90
2018-08-10T02:03:26.438Z,17.80
2018-08-10T02:08:26.119Z,17.70
2018-08-10T02:10:56.247Z,17.70
2018-08-10T02:13:26.234Z,17.60
2018-08-10T02:15:56.307Z,17.50
2018-08-10T02:18:26.324Z,17.40
2018-08-10T02:20:56.472Z,17.40
2018-08-10T02:23:26.407Z,17.30
2018-08-10T02:25:56.459Z,17.20
2018-08-10T02:28:26.435Z,17.10
2018-08-10T02:30:56.511Z,17.10
2018-08-10T02:33:26.486Z,17.00
2018-08-10T02:35:56.531Z,16.90
2018-08-10T02:38:26.586Z,16.80
2018-08-10T02:40:56.726Z,16.80
2018-08-10T02:43:26.714Z,16.80
2018-08-10T02:45:56.792Z,16.80
2018-08-10T02:48:26.787Z,16.70
2018-08-10T02:50:56.987Z,16.70
2018-08-10T02:53:26.990Z,16.60
2018-08-10T02:55:57.067Z,16.60
2018-08-10T02:58:27.155Z,16.60
2018-08-10T03:00:57.227Z,16.50
2018-08-10T03:03:27.250Z,16.40
2018-08-10T03:05:57.275Z,16.40
2018-08-10T03:08:27.268Z,16.40
2018-08-10T03:10:57.360Z,16.30
2018-08-10T03:13:27.366Z,16.10
2018-08-10T03:15:57.519Z,16.10
2018-08-10T03:20:57.941Z,16.00
2018-08-10T03:23:28.003Z,16.00
2018-08-10T03:25:58.062Z,15.90
2018-08-10T03:28:28.102Z,15.90
2018-08-10T03:30:58.204Z,15.80
2018-08-10T03:33:28.206Z,15.70
2018-08-10T03:35:58.250Z,15.60
2018-08-10T03:38:28.290Z,15.60
2018-08-10T03:40:58.374Z,15.50
2018-08-10T03:43:28.375Z,15.40
2018-08-10T03:45:58.423Z,15.30
2018-08-10T03:48:28.418Z,15.20
2018-08-10T03:55:57.793Z,15.10
2018-08-10T03:58:27.818Z,15.00
2018-08-10T04:00:57.845Z,15.00
2018-08-10T04:05:57.950Z,15.20
2018-08-10T04:08:27.966Z,15.20
2018-08-10T04:13:27.655Z,15.40
2018-08-10T04:15:57.663Z,15.30
2018-08-10T04:20:57.565Z,15.30
2018-08-10T04:23:27.862Z,15.40
2018-08-10T04:25:58.117Z,15.40
2018-08-10T04:28:28.290Z,15.40
2018-08-10T04:30:58.411Z,15.30
2018-08-10T04:33:28.510Z,15.30
2018-08-10T04:35:58.570Z,15.30
2018-08-10T04:38:28.829Z,15.30
2018-08-10T04:40:58.766Z,15.10
2018-08-10T04:43:28.807Z,15.10
2018-08-10T04:45:58.838Z,15.10
2018-08-10T04:48:29.203Z,15.20
2018-08-10T04:50:59.845Z,15.30
2018-08-10T04:53:29.910Z,15.20
2018-08-10T04:56:02.981Z,15.10
2018-08-10T04:58:33.167Z,15.00
2018-08-10T05:01:03.163Z,15.00
2018-08-10T05:03:33.251Z,14.90
2018-08-10T05:06:03.362Z,14.80
2018-08-10T05:08:33.395Z,14.80
2018-08-10T05:11:03.482Z,14.70
2018-08-10T05:13:33.519Z,14.70
2018-08-10T05:16:03.543Z,14.70
2018-08-10T05:18:33.574Z,14.70
2018-08-10T05:21:03.648Z,14.70
2018-08-10T05:28:33.067Z,14.70
2018-08-10T05:31:03.464Z,14.70
2018-08-10T05:33:33.495Z,14.70
2018-08-10T05:36:03.502Z,14.70
2018-08-10T05:38:33.547Z,14.80
2018-08-10T05:41:03.659Z,14.90
2018-08-10T05:43:33.690Z,15.00
2018-08-10T05:46:03.702Z,15.20
2018-08-10T05:48:44.822Z,15.20
2018-08-10T05:51:17.642Z,15.40
2018-08-10T05:53:48.314Z,15.50
2018-08-10T05:56:19.556Z,15.70
2018-08-10T05:58:50.198Z,15.90
2018-08-10T06:01:21.695Z,16.10
2018-08-10T06:03:54.013Z,16.20
2018-08-10T06:06:24.706Z,16.40
2018-08-10T06:08:55.804Z,16.60
2018-08-10T06:11:25.798Z,16.60
2018-08-10T06:16:25.522Z,16.80
2018-08-10T06:18:55.872Z,16.70
2018-08-10T06:21:26.062Z,16.70
2018-08-10T06:23:56.156Z,16.60
2018-08-10T06:26:26.242Z,16.70
2018-08-10T06:33:56.567Z,16.70
2018-08-10T06:36:26.605Z,16.80
2018-08-10T06:38:56.899Z,16.80
2018-08-10T06:41:26.911Z,17.00
2018-08-10T06:43:57.062Z,17.00
2018-08-10T06:46:32.312Z,17.10
2018-08-10T06:54:01.806Z,17.40
2018-08-10T06:56:31.831Z,17.60
2018-08-10T06:59:02.007Z,17.80
2018-08-10T07:04:01.656Z,17.90
2018-08-10T07:06:31.655Z,18.10
2018-08-10T07:09:01.709Z,18.30
2018-08-10T07:11:31.746Z,18.40
2018-08-10T07:14:01.818Z,18.40
2018-08-10T07:16:31.831Z,18.60
2018-08-10T07:19:02.949Z,18.70
2018-08-10T07:21:32.946Z,18.80
2018-08-10T07:24:05.912Z,19.00
2018-08-10T07:26:37.096Z,18.90
2018-08-10T07:29:12.481Z,19.10
2018-08-10T07:31:47.597Z,19.10
2018-08-10T07:39:20.858Z,19.80
2018-08-10T07:44:50.077Z,19.80
2018-08-10T07:49:51.846Z,20.50
2018-08-10T07:52:23.790Z,21.00
2018-08-10T07:54:55.089Z,21.30
2018-08-10T07:57:25.569Z,22.10
2018-08-10T07:59:56.119Z,22.50
2018-08-10T08:02:27.011Z,22.80
2018-08-10T08:04:57.059Z,22.70
2018-08-10T08:09:59.274Z,21.70
2018-08-10T08:12:29.361Z,21.00
2018-08-10T08:14:59.862Z,20.80
2018-08-10T08:17:29.877Z,20.60
2018-08-10T08:20:00.021Z,20.40
2018-08-10T08:22:29.984Z,20.40
2018-08-10T08:25:00.351Z,20.50
2018-08-10T08:27:30.649Z,20.60
2018-08-10T08:30:00.683Z,20.60
2018-08-10T08:32:30.717Z,20.40
2018-08-10T08:35:00.912Z,18.40
2018-08-10T08:37:30.798Z,20.00
2018-08-10T08:40:19.063Z,20.20
2018-08-10T08:42:50.804Z,20.80
2018-08-10T08:45:59.298Z,20.90
2018-08-10T08:48:30.471Z,21.20
2018-08-10T08:51:04.114Z,21.20
2018-08-10T08:53:34.212Z,21.00
2018-08-10T08:56:13.125Z,21.10
2018-08-10T08:58:48.588Z,21.30
2018-08-10T09:01:20.067Z,21.30
2018-08-10T09:05:03.719Z,21.10
2018-08-10T09:07:34.031Z,21.10
2018-08-10T09:15:18.882Z,21.10
2018-08-10T09:17:50.630Z,21.10
2018-08-10T09:20:21.602Z,21.30
2018-08-10T09:22:53.416Z,21.50
2018-08-10T09:25:24.935Z,21.50
2018-08-10T09:30:26.403Z,21.50
2018-08-10T09:32:56.446Z,21.60
2018-08-10T09:35:27.063Z,21.70
2018-08-10T09:37:57.105Z,21.50
2018-08-10T09:40:27.199Z,21.50
2018-08-10T09:42:57.331Z,21.30
2018-08-10T09:45:27.566Z,21.60
2018-08-10T09:47:57.579Z,21.80
2018-08-10T09:50:27.650Z,21.70
2018-08-10T09:53:02.054Z,21.70
2018-08-10T09:55:36.173Z,21.90
2018-08-10T09:58:17.476Z,22.00
2018-08-10T10:03:25.658Z,22.60
2018-08-10T10:05:58.546Z,22.70
2018-08-10T10:08:28.615Z,22.60
2018-08-10T10:10:58.683Z,22.10
2018-08-10T10:13:28.760Z,22.20
2018-08-10T10:18:28.454Z,22.80
2018-08-10T10:20:58.474Z,22.70
2018-08-10T10:23:28.526Z,22.10
2018-08-10T10:25:58.574Z,22.30
2018-08-10T10:28:28.635Z,22.60
2018-08-10T10:30:58.648Z,22.80
2018-08-10T10:33:28.714Z,22.70
2018-08-10T10:35:58.719Z,22.50
2018-08-10T10:38:28.803Z,22.40
2018-08-10T10:43:28.538Z,22.00
2018-08-10T10:45:58.655Z,22.00
2018-08-10T10:48:28.709Z,22.00
2018-08-10T10:50:58.844Z,22.30
2018-08-10T10:55:58.519Z,22.80
2018-08-10T10:58:28.575Z,22.70
2018-08-10T11:03:28.378Z,23.20
2018-08-10T11:05:58.384Z,23.10
2018-08-10T11:08:28.458Z,23.30
2018-08-10T11:10:58.491Z,23.00
2018-08-10T11:13:28.546Z,23.00
2018-08-10T11:15:58.563Z,23.40
2018-08-10T11:18:28.610Z,23.80
2018-08-10T11:23:28.270Z,23.90
2018-08-10T11:25:58.291Z,24.30
2018-08-10T11:28:28.306Z,24.30
2018-08-10T11:30:58.306Z,24.00
2018-08-10T11:33:28.375Z,24.00
2018-08-10T11:35:59.431Z,23.80
2018-08-10T11:38:29.598Z,23.70
2018-08-10T11:40:59.664Z,23.60
2018-08-10T11:43:29.707Z,23.80
2018-08-10T11:45:59.715Z,24.40
2018-08-10T11:48:29.748Z,24.50
2018-08-10T11:50:59.751Z,24.20
2018-08-10T11:53:29.799Z,24.10
2018-08-10T11:55:59.810Z,24.10
2018-08-10T11:58:29.834Z,24.10
2018-08-10T12:00:59.923Z,23.80
2018-08-10T12:05:59.662Z,24.10
2018-08-10T12:08:29.662Z,24.40
2018-08-10T12:10:59.674Z,24.80
2018-08-10T12:15:59.391Z,25.20
2018-08-10T12:18:29.888Z,25.40
2018-08-10T12:20:59.926Z,25.40
2018-08-10T12:23:29.963Z,25.10
2018-08-10T12:25:59.974Z,24.50
2018-08-10T12:28:30.011Z,24.20
2018-08-10T12:31:00.276Z,24.20
2018-08-10T12:33:30.658Z,24.30
2018-08-10T12:36:00.713Z,24.60
2018-08-10T12:38:30.703Z,24.30
2018-08-10T12:43:30.370Z,24.30
2018-08-10T12:46:00.367Z,24.80
2018-08-10T12:48:30.391Z,25.30
2018-08-10T12:51:00.398Z,25.70
2018-08-10T12:53:30.419Z,26.00
2018-08-10T12:56:00.422Z,26.30
2018-08-10T12:58:30.483Z,26.30
2018-08-10T13:01:00.478Z,25.80
2018-08-10T13:03:30.667Z,25.30
2018-08-10T13:06:00.927Z,25.30
2018-08-10T13:08:30.982Z,25.70
2018-08-10T13:11:00.991Z,26.00
2018-08-10T13:13:35.939Z,26.20
2018-08-10T13:16:06.215Z,26.30
2018-08-10T13:18:36.316Z,26.50
2018-08-10T13:23:36.723Z,25.90
2018-08-10T13:26:08.398Z,25.60
2018-08-10T13:28:42.405Z,25.10
2018-08-10T13:31:17.702Z,24.80
2018-08-10T13:33:50.897Z,24.60
2018-08-10T13:36:23.741Z,24.90
2018-08-10T13:38:54.917Z,25.50
2018-08-10T13:41:25.814Z,26.10
2018-08-10T13:43:56.778Z,26.40
2018-08-10T13:46:27.256Z,26.60
2018-08-10T13:48:57.319Z,25.90
2018-08-10T13:51:27.351Z,25.20
2018-08-10T13:53:57.382Z,25.00
2018-08-10T13:56:27.486Z,24.90
2018-08-10T13:58:57.763Z,25.00
2018-08-10T14:03:57.617Z,24.80
2018-08-10T14:06:27.689Z,24.40
2018-08-10T14:08:59.579Z,24.30
2018-08-10T14:11:29.575Z,24.10
2018-08-10T14:13:59.614Z,24.10
2018-08-10T14:16:29.659Z,24.10
2018-08-10T14:18:59.723Z,24.10
2018-08-10T14:21:29.742Z,24.20
2018-08-10T14:23:59.806Z,24.10
2018-08-10T14:26:29.816Z,24.10
2018-08-10T14:28:59.851Z,24.20
2018-08-10T14:31:29.899Z,24.30
2018-08-10T14:33:59.967Z,24.40
2018-08-10T14:36:29.993Z,25.00
2018-08-10T14:39:00.027Z,25.70
2018-08-10T14:41:30.070Z,25.90
2018-08-10T14:46:29.835Z,25.50
2018-08-10T14:48:59.882Z,25.20
2018-08-10T14:51:30.158Z,25.30
2018-08-10T14:54:00.201Z,25.60
2018-08-10T14:56:30.233Z,26.00
2018-08-10T14:59:00.647Z,26.30
2018-08-10T15:01:30.868Z,26.60
2018-08-10T15:04:00.893Z,26.60
2018-08-10T15:06:31.302Z,26.70
2018-08-10T15:09:01.284Z,26.90
2018-08-10T15:11:31.328Z,27.10
2018-08-10T15:14:01.381Z,27.10
2018-08-10T15:16:31.394Z,27.30
2018-08-10T15:19:01.518Z,27.30
2018-08-10T15:21:31.817Z,26.90
2018-08-10T15:24:01.954Z,26.30
2018-08-10T15:26:31.970Z,25.90
2018-08-10T15:29:02.010Z,25.50
2018-08-10T15:34:01.667Z,25.90
2018-08-10T15:36:31.704Z,25.90
2018-08-10T15:39:02.078Z,25.50
2018-08-10T15:44:01.955Z,25.50
2018-08-10T15:46:31.985Z,25.60
2018-08-10T15:49:01.999Z,25.30
2018-08-10T15:51:32.039Z,25.00
2018-08-10T15:54:02.050Z,24.90
2018-08-10T16:01:31.578Z,24.90
2018-08-10T16:04:01.591Z,24.90
2018-08-10T16:06:31.682Z,25.10
2018-08-10T16:09:01.701Z,25.60
2018-08-10T16:11:31.731Z,25.70
2018-08-10T16:14:01.795Z,25.70
2018-08-10T16:16:31.799Z,25.80
2018-08-10T16:19:01.821Z,25.80
2018-08-10T16:21:31.894Z,25.50
2018-08-10T16:24:01.927Z,25.10
2018-08-10T16:26:31.966Z,24.70
2018-08-10T16:29:01.961Z,24.40
2018-08-10T16:31:31.990Z,24.30
2018-08-10T16:34:02.020Z,24.20
2018-08-10T16:36:32.054Z,24.10
2018-08-10T16:41:31.710Z,24.00
2018-08-10T16:44:01.996Z,23.90
2018-08-10T16:46:32.022Z,23.90
2018-08-10T16:49:02.058Z,23.90
2018-08-10T16:51:32.108Z,24.00
2018-08-10T16:54:02.303Z,24.50
2018-08-10T16:56:32.342Z,25.20
2018-08-10T16:59:02.359Z,25.90
2018-08-10T17:01:32.506Z,25.80
2018-08-10T17:04:02.606Z,26.10
2018-08-10T17:06:32.662Z,26.60
2018-08-10T17:09:02.666Z,27.10
2018-08-10T17:11:32.959Z,27.30
2018-08-10T17:14:03.027Z,27.20
2018-08-10T17:16:33.236Z,26.40
2018-08-10T17:19:03.408Z,25.60
2018-08-10T17:21:33.426Z,25.00
2018-08-10T17:24:03.455Z,24.50
2018-08-10T17:26:33.509Z,24.30
2018-08-10T17:31:33.239Z,24.00
2018-08-10T17:34:03.358Z,23.80
2018-08-10T17:36:33.383Z,23.80
2018-08-10T17:39:03.681Z,23.60
2018-08-10T17:41:33.722Z,23.40
2018-08-10T17:44:03.787Z,23.20
2018-08-10T17:46:33.838Z,23.00
2018-08-10T17:51:33.523Z,22.60
2018-08-10T17:54:03.551Z,22.40
2018-08-10T18:01:32.995Z,21.90
2018-08-10T18:04:03.022Z,21.80
2018-08-10T18:06:33.059Z,21.70
2018-08-10T18:09:03.139Z,21.50
2018-08-10T18:11:33.148Z,21.30
2018-08-10T18:16:32.926Z,21.00
2018-08-10T18:19:02.968Z,20.80
2018-08-10T18:21:33.246Z,20.70
2018-08-10T18:24:03.285Z,20.40
2018-08-10T18:31:32.666Z,19.90
2018-08-10T18:34:02.732Z,19.70
2018-08-10T18:36:32.706Z,19.50
2018-08-10T18:39:04.035Z,19.40
2018-08-10T18:41:34.122Z,19.30
2018-08-10T18:46:35.790Z,19.10
2018-08-10T18:49:05.917Z,18.90
2018-08-10T18:51:35.952Z,18.80
2018-08-10T18:54:06.822Z,18.60
2018-08-10T18:59:17.990Z,18.60
2018-08-10T19:01:50.624Z,18.50
2018-08-10T19:04:21.886Z,18.30
2018-08-10T19:06:54.109Z,18.10
2018-08-10T19:09:25.689Z,18.00
2018-08-10T19:11:56.427Z,18.00
2018-08-10T19:14:26.794Z,17.90
2018-08-10T19:16:57.310Z,17.80
2018-08-10T19:19:27.493Z,17.80
2018-08-10T19:21:57.606Z,17.80
2018-08-10T19:24:27.678Z,17.80
2018-08-10T19:26:57.678Z,17.70
2018-08-10T19:29:27.847Z,17.70
2018-08-10T19:31:57.868Z,17.80
2018-08-10T19:34:27.887Z,17.90
2018-08-10T19:36:57.974Z,18.00
2018-08-10T19:39:28.002Z,20.10
2018-08-10T19:41:58.011Z,18.10
2018-08-10T19:44:28.042Z,18.10
2018-08-10T19:49:30.584Z,18.20
2018-08-10T19:52:00.634Z,18.30
2018-08-10T19:54:30.667Z,18.20
2018-08-10T19:57:00.677Z,18.40
2018-08-10T19:59:47.696Z,18.40
2018-08-10T20:04:54.931Z,18.40
2018-08-10T20:07:26.153Z,18.40
2018-08-10T20:09:56.887Z,18.30
2018-08-10T20:12:27.179Z,18.40
2018-08-10T20:14:57.531Z,18.30
2018-08-10T20:17:27.709Z,18.30
2018-08-10T20:19:57.830Z,18.30
2018-08-10T20:24:57.671Z,18.00
2018-08-10T20:27:27.699Z,17.90
2018-08-10T20:29:57.900Z,17.90
2018-08-10T20:34:57.949Z,17.70
2018-08-10T20:37:27.965Z,17.60
2018-08-10T20:39:58.005Z,17.50
2018-08-10T20:42:28.006Z,17.40
2018-08-10T20:44:58.045Z,17.30
2018-08-10T20:47:28.238Z,17.20
2018-08-10T20:49:58.271Z,17.30
2018-08-10T20:52:28.366Z,17.30
2018-08-10T20:54:58.635Z,17.30
2018-08-10T20:57:28.668Z,17.20
2018-08-10T20:59:58.726Z,17.20
2018-08-10T21:02:28.746Z,17.20
2018-08-10T21:04:58.760Z,17.20
2018-08-10T21:07:28.838Z,17.20
2018-08-10T21:12:28.610Z,17.30
2018-08-10T21:14:58.623Z,17.30
2018-08-10T21:17:28.666Z,17.30
2018-08-10T21:19:58.690Z,17.20
2018-08-10T21:22:28.782Z,17.20
2018-08-10T21:24:58.778Z,17.20
2018-08-10T21:27:28.819Z,17.30
2018-08-10T21:29:58.862Z,17.30
2018-08-10T21:32:28.889Z,17.30
2018-08-10T21:34:58.894Z,17.30
2018-08-10T21:39:58.686Z,17.30
2018-08-10T21:42:28.695Z,17.30
2018-08-10T21:44:58.722Z,17.30
2018-08-10T21:47:28.751Z,17.30
2018-08-10T21:49:58.750Z,17.40
2018-08-10T21:52:28.839Z,17.40
2018-08-10T21:54:58.903Z,17.30
2018-08-10T21:57:28.971Z,17.40
2018-08-10T21:59:59.042Z,17.50
2018-08-10T22:02:31.703Z,17.40
2018-08-10T22:05:01.767Z,17.40
2018-08-10T22:07:31.782Z,17.30
2018-08-10T22:10:01.902Z,17.40
2018-08-10T22:12:31.864Z,17.40
2018-08-10T22:15:07.227Z,17.30
2018-08-10T22:17:43.534Z,17.30
2018-08-10T22:20:17.748Z,17.30
2018-08-10T22:22:49.309Z,17.30
2018-08-10T22:30:25.079Z,17.20
2018-08-10T22:32:56.046Z,17.20
2018-08-10T22:37:56.526Z,17.30
2018-08-10T22:40:27.246Z,17.20
2018-08-10T22:45:27.581Z,17.20
2018-08-10T22:47:58.023Z,17.20
2018-08-10T22:50:28.347Z,17.20
2018-08-10T22:52:58.347Z,17.20
2018-08-10T22:57:58.027Z,17.10
2018-08-10T23:00:28.135Z,17.10
2018-08-10T23:05:28.023Z,17.10
2018-08-10T23:10:27.856Z,17.10
2018-08-10T23:12:57.915Z,17.00
2018-08-10T23:15:27.990Z,17.00
2018-08-10T23:17:58.136Z,17.00
2018-08-10T23:20:28.540Z,17.00
2018-08-10T23:22:58.582Z,17.00
2018-08-10T23:25:28.606Z,17.00
2018-08-10T23:27:58.685Z,17.00
2018-08-10T23:32:58.458Z,16.90
2018-08-10T23:35:28.483Z,16.90
2018-08-10T23:37:58.566Z,16.90
2018-08-10T23:40:28.802Z,16.80
2018-08-10T23:42:58.895Z,16.80
2018-08-10T23:45:28.937Z,16.80
2018-08-10T23:47:59.014Z,16.80
2018-08-10T23:50:29.074Z,16.80
2018-08-10T23:52:59.130Z,16.80
2018-08-10T23:55:29.191Z,16.80
2018-08-10T23:57:59.223Z,16.80
